New London, Texas
Current Conditions -  °F | °C
As of 2:35 AM on Sunday 23 Nov 2014 (Local Time) from KRFI Reporting Station
Moderate Rain Moderate Rain  
Wind Chill: 60°   Ceiling: 5500
Heat Index: 60°   Visibility: 10mi
Dew Point: 60°   Wind: 10mph
Humidity: 100%   Direction: 140°SE
Pressure: 29.68"   Gusts: NA
Location:  32.24°N, 94.94°W
Report Text: KRFI 230835Z AUTO 14009KT 10SM RA SCT047 OVC055 16/16 A2968 RMK AO2 T01550155
Loading
Personal Weather Stations






























Interactive Weather Map New forecast layout! Learn more

10-Day Weather Forecast

Advertisements
Track Severe Weather on mobile